PWSweather.com
Personal Weather Stations
Station Observations
PICKERING
North Yorkshire, PickeringGB

North YorkshirePickeringGB

Lat: 54.2494, Lon: -0.7725

Elevation: 192

Station Type: Oregon Scientific WMR100

http://www.yorkshirewalker.co.uk/weather/

High Low Average
Temperature 60.8°F16.0°C 37.0°F2.8°C 48.5°F9.2°C
Dew Point 48.2°F9.0°C 32.0°F0.0°C 40.7°F4.8°C
Winds 10.8 mph 17.4 kmh Calm Calm 3.0 mph SSW4.8 kmh SSW
Wind Gusts 16.1 mph25.9 kmh -- 6.0 mph9.7 kmh
Humidity 83% 59% 74%
Pressure 29.39 in995.3 mb 29.06 in984.1 mb -
Precipitation 0.00 in0.0 mm - -
Hour Temp Dew Point Humidity Winds Wind Gusts Pressure Precip Precip Rate Daily Precip Total
12:00 AM 44.2°F6.8°C 37.4°F3.0°C 76% 6.1 mph S9.8 kmh S 9.6 mph15.4 kmh 29.30 in992.2 mb 0.00 in0.0 mm 0.00 in0.0 mm 0.00 in0.0 mm
12:05 AM 43.9°F6.6°C 37.4°F3.0°C 76% 5.8 mph SSW9.3 kmh SSW 9.6 mph15.4 kmh 29.30 in992.2 mb 0.00 in0.0 mm 0.00 in0.0 mm 0.00 in0.0 mm
12:10 AM 43.5°F6.4°C 37.4°F3.0°C 76% 3.8 mph WSW6.1 kmh WSW 9.6 mph15.4 kmh 29.30 in992.2 mb 0.00 in0.0 mm 0.00 in0.0 mm 0.00 in0.0 mm
12:15 AM 42.8°F6.0°C 37.4°F3.0°C 77% 1.7 mph W2.7 kmh W 4.0 mph6.4 kmh 29.30 in992.2 mb 0.00 in0.0 mm 0.00 in0.0 mm 0.00 in0.0 mm
12:20 AM 42.8°F6.0°C 37.4°F3.0°C 77% 0.9 mph NW1.4 kmh NW 2.5 mph4.0 kmh 29.30 in992.2 mb 0.00 in0.0 mm 0.00 in0.0 mm 0.00 in0.0 mm
12:25 AM 43.2°F6.2°C 37.4°F3.0°C 77% 1.3 mph S2.1 kmh S 2.7 mph4.3 kmh 29.30 in992.2 mb 0.00 in0.0 mm 0.00 in0.0 mm 0.00 in0.0 mm
12:30 AM 43.2°F6.2°C 37.4°F3.0°C 77% 1.8 mph S2.9 kmh S 3.4 mph5.5 kmh 29.30 in992.2 mb 0.00 in0.0 mm 0.00 in0.0 mm 0.00 in0.0 mm
12:35 AM 43.5°F6.4°C 37.4°F3.0°C 77% 3.3 mph S5.3 kmh S 7.8 mph12.6 kmh 29.30 in992.2 mb 0.00 in0.0 mm 0.00 in0.0 mm 0.00 in0.0 mm
12:40 AM 43.9°F6.6°C 37.4°F3.0°C 77% 4.6 mph S7.4 kmh S 7.8 mph12.6 kmh 29.30 in992.2 mb 0.00 in0.0 mm 0.00 in0.0 mm 0.00 in0.0 mm
12:45 AM 44.2°F6.8°C 37.4°F3.0°C 77% 4.6 mph S7.4 kmh S 7.6 mph12.2 kmh 29.30 in992.2 mb 0.00 in0.0 mm 0.00 in0.0 mm 0.00 in0.0 mm
12:50 AM 44.1°F6.7°C 37.4°F3.0°C 76% 3.5 mph SSW5.6 kmh SSW 6.5 mph10.5 kmh 29.30 in992.2 mb 0.00 in0.0 mm 0.00 in0.0 mm 0.00 in0.0 mm
12:55 AM 43.9°F6.6°C 37.4°F3.0°C 76% 1.4 mph WNW2.3 kmh WNW 2.9 mph4.7 kmh 29.30 in992.2 mb 0.00 in0.0 mm 0.00 in0.0 mm 0.00 in0.0 mm
01:00 AM 43.9°F6.6°C 37.4°F3.0°C 77% 0.9 mph W1.4 kmh W 2.9 mph4.7 kmh 29.30 in992.2 mb 0.00 in0.0 mm 0.00 in0.0 mm 0.00 in0.0 mm
01:05 AM 44.1°F6.7°C 37.4°F3.0°C 77% 1.5 mph S2.4 kmh S 4.3 mph6.9 kmh 29.06 in984.1 mb 0.00 in0.0 mm 0.00 in0.0 mm 0.00 in0.0 mm
01:10 AM 44.1°F6.7°C 37.4°F3.0°C 77% 3.1 mph S5.0 kmh S 6.5 mph10.5 kmh 29.06 in984.1 mb 0.00 in0.0 mm 0.00 in0.0 mm 0.00 in0.0 mm
01:15 AM 44.4°F6.9°C 37.4°F3.0°C 77% 4.7 mph S7.6 kmh S 7.6 mph12.2 kmh 29.06 in984.1 mb 0.00 in0.0 mm 0.00 in0.0 mm 0.00 in0.0 mm
01:20 AM 44.6°F7.0°C 37.4°F3.0°C 76% 5.5 mph S8.9 kmh S 7.6 mph12.2 kmh 29.24 in990.2 mb 0.00 in0.0 mm 0.00 in0.0 mm 0.00 in0.0 mm
01:25 AM 44.8°F7.1°C 37.4°F3.0°C 76% 4.4 mph S7.1 kmh S 7.6 mph12.2 kmh 29.24 in990.2 mb 0.00 in0.0 mm 0.00 in0.0 mm 0.00 in0.0 mm
01:30 AM 45.0°F7.2°C 37.4°F3.0°C 76% 3.9 mph SSW6.3 kmh SSW 7.2 mph11.6 kmh 29.24 in990.2 mb 0.00 in0.0 mm 0.00 in0.0 mm 0.00 in0.0 mm
01:35 AM 44.8°F7.1°C 37.4°F3.0°C 76% 3.0 mph WSW4.8 kmh WSW 6.0 mph9.7 kmh 29.27 in991.2 mb 0.00 in0.0 mm 0.00 in0.0 mm 0.00 in0.0 mm
01:40 AM 44.6°F7.0°C 37.4°F3.0°C 76% 1.8 mph WNW2.9 kmh WNW 4.0 mph6.4 kmh 29.27 in991.2 mb 0.00 in0.0 mm 0.00 in0.0 mm 0.00 in0.0 mm
01:45 AM 44.6°F7.0°C 37.4°F3.0°C 76% 2.2 mph SW3.5 kmh SW 5.4 mph8.7 kmh 29.27 in991.2 mb 0.00 in0.0 mm 0.00 in0.0 mm 0.00 in0.0 mm
01:50 AM 44.8°F7.1°C 37.4°F3.0°C 76% 3.1 mph SSW5.0 kmh SSW 5.4 mph8.7 kmh 29.27 in991.2 mb 0.00 in0.0 mm 0.00 in0.0 mm 0.00 in0.0 mm
01:55 AM 44.8°F7.1°C 37.4°F3.0°C 76% 2.8 mph SSW4.5 kmh SSW 5.4 mph8.7 kmh 29.27 in991.2 mb 0.00 in0.0 mm 0.00 in0.0 mm 0.00 in0.0 mm
02:00 AM 44.6°F7.0°C 37.4°F3.0°C 76% 2.2 mph SW3.5 kmh SW 3.6 mph5.8 kmh 29.27 in991.2 mb 0.00 in0.0 mm 0.00 in0.0 mm 0.00 in0.0 mm
02:05 AM 44.2°F6.8°C 37.4°F3.0°C 76% 2.1 mph SW3.4 kmh SW 3.6 mph5.8 kmh 29.09 in985.1 mb 0.00 in0.0 mm 0.00 in0.0 mm 0.00 in0.0 mm
02:10 AM 44.1°F6.7°C 37.4°F3.0°C 76% 1.9 mph SW3.1 kmh SW 2.9 mph4.7 kmh 29.09 in985.1 mb 0.00 in0.0 mm 0.00 in0.0 mm 0.00 in0.0 mm
02:15 AM 44.1°F6.7°C 37.4°F3.0°C 76% 1.7 mph SSW2.7 kmh SSW 2.7 mph4.3 kmh 29.09 in985.1 mb 0.00 in0.0 mm 0.00 in0.0 mm 0.00 in0.0 mm
02:20 AM 43.9°F6.6°C 37.4°F3.0°C 76% 1.2 mph SSW1.9 kmh SSW 2.0 mph3.2 kmh 29.24 in990.2 mb 0.00 in0.0 mm 0.00 in0.0 mm 0.00 in0.0 mm
02:25 AM 44.1°F6.7°C 37.4°F3.0°C 77% 1.0 mph SW1.6 kmh SW 2.5 mph4.0 kmh 29.24 in990.2 mb 0.00 in0.0 mm 0.00 in0.0 mm 0.00 in0.0 mm
02:30 AM 44.4°F6.9°C 37.4°F3.0°C 77% 1.3 mph SW2.1 kmh SW 2.5 mph4.0 kmh 29.24 in990.2 mb 0.00 in0.0 mm 0.00 in0.0 mm 0.00 in0.0 mm
02:35 AM 44.6°F7.0°C 37.4°F3.0°C 76% 2.3 mph SW3.7 kmh SW 5.4 mph8.7 kmh 29.27 in991.2 mb 0.00 in0.0 mm 0.00 in0.0 mm 0.00 in0.0 mm
02:40 AM 44.6°F7.0°C 37.4°F3.0°C 76% 2.5 mph SW4.0 kmh SW 5.4 mph8.7 kmh 29.27 in991.2 mb 0.00 in0.0 mm 0.00 in0.0 mm 0.00 in0.0 mm
02:45 AM 44.6°F7.0°C 37.4°F3.0°C 76% 1.7 mph WSW2.7 kmh WSW 2.9 mph4.7 kmh 29.27 in991.2 mb 0.00 in0.0 mm 0.00 in0.0 mm 0.00 in0.0 mm
02:50 AM 44.6°F7.0°C 37.4°F3.0°C 76% 1.6 mph SW2.6 kmh SW 2.5 mph4.0 kmh 29.27 in991.2 mb 0.00 in0.0 mm 0.00 in0.0 mm 0.00 in0.0 mm
02:55 AM 44.6°F7.0°C 37.4°F3.0°C 76% 1.2 mph SW1.9 kmh SW 2.5 mph4.0 kmh 29.27 in991.2 mb 0.00 in0.0 mm 0.00 in0.0 mm 0.00 in0.0 mm
03:00 AM 44.6°F7.0°C 37.4°F3.0°C 77% 1.0 mph SSW1.6 kmh SSW 2.9 mph4.7 kmh 29.27 in991.2 mb 0.00 in0.0 mm 0.00 in0.0 mm 0.00 in0.0 mm
03:05 AM 44.4°F6.9°C 37.4°F3.0°C 77% 1.5 mph WSW2.4 kmh WSW 2.9 mph4.7 kmh 29.09 in985.1 mb 0.00 in0.0 mm 0.00 in0.0 mm 0.00 in0.0 mm
03:10 AM 44.4°F6.9°C 37.4°F3.0°C 77% 1.4 mph W2.3 kmh W 2.2 mph3.5 kmh 29.09 in985.1 mb 0.00 in0.0 mm 0.00 in0.0 mm 0.00 in0.0 mm
03:15 AM 44.4°F6.9°C 37.4°F3.0°C 77% 1.5 mph NW2.4 kmh NW 4.5 mph7.2 kmh 29.09 in985.1 mb 0.00 in0.0 mm 0.00 in0.0 mm 0.00 in0.0 mm
03:20 AM 44.4°F6.9°C 37.4°F3.0°C 77% 1.0 mph NNW1.6 kmh NNW 4.5 mph7.2 kmh 29.30 in992.2 mb 0.00 in0.0 mm 0.00 in0.0 mm 0.00 in0.0 mm
03:25 AM 44.2°F6.8°C 37.4°F3.0°C 77% 0.4 mph N0.6 kmh N 1.3 mph2.1 kmh 29.30 in992.2 mb 0.00 in0.0 mm 0.00 in0.0 mm 0.00 in0.0 mm
03:30 AM 44.2°F6.8°C 37.4°F3.0°C 77% 0.3 mph NW0.5 kmh NW 1.3 mph2.1 kmh 29.30 in992.2 mb 0.00 in0.0 mm 0.00 in0.0 mm 0.00 in0.0 mm
03:35 AM 44.1°F6.7°C 37.4°F3.0°C 77% 0.5 mph SW0.8 kmh SW 1.1 mph1.8 kmh 29.33 in993.2 mb 0.00 in0.0 mm 0.00 in0.0 mm 0.00 in0.0 mm
03:40 AM 44.1°F6.7°C 37.4°F3.0°C 77% 1.4 mph S2.3 kmh S 2.7 mph4.3 kmh 29.33 in993.2 mb 0.00 in0.0 mm 0.00 in0.0 mm 0.00 in0.0 mm
03:45 AM 43.9°F6.6°C 37.4°F3.0°C 77% 1.7 mph S2.7 kmh S 2.7 mph4.3 kmh 29.33 in993.2 mb 0.00 in0.0 mm 0.00 in0.0 mm 0.00 in0.0 mm
03:50 AM 43.7°F6.5°C 37.4°F3.0°C 77% 1.8 mph SSW2.9 kmh SSW 2.9 mph4.7 kmh 29.30 in992.2 mb 0.00 in0.0 mm 0.00 in0.0 mm 0.00 in0.0 mm
03:55 AM 43.7°F6.5°C 37.4°F3.0°C 78% 2.6 mph SSW4.2 kmh SSW 5.6 mph9.0 kmh 29.30 in992.2 mb 0.00 in0.0 mm 0.00 in0.0 mm 0.00 in0.0 mm
04:00 AM 43.5°F6.4°C 37.4°F3.0°C 78% 3.2 mph SSW5.1 kmh SSW 5.6 mph9.0 kmh 29.30 in992.2 mb 0.00 in0.0 mm 0.00 in0.0 mm 0.00 in0.0 mm
04:05 AM 43.2°F6.2°C 37.4°F3.0°C 78% 2.6 mph SSW4.2 kmh SSW 3.4 mph5.5 kmh 29.30 in992.2 mb 0.00 in0.0 mm 0.00 in0.0 mm 0.00 in0.0 mm
04:10 AM 43.3°F6.3°C 37.4°F3.0°C 78% 2.4 mph SSW3.9 kmh SSW 4.3 mph6.9 kmh 29.30 in992.2 mb 0.00 in0.0 mm 0.00 in0.0 mm 0.00 in0.0 mm
04:15 AM 43.0°F6.1°C 37.4°F3.0°C 78% 2.0 mph SSW3.2 kmh SSW 4.3 mph6.9 kmh 29.30 in992.2 mb 0.00 in0.0 mm 0.00 in0.0 mm 0.00 in0.0 mm
04:20 AM 42.8°F6.0°C 37.4°F3.0°C 78% 1.0 mph SSW1.6 kmh SSW 2.7 mph4.3 kmh 29.33 in993.2 mb 0.00 in0.0 mm 0.00 in0.0 mm 0.00 in0.0 mm
04:25 AM 42.4°F5.8°C 37.4°F3.0°C 78% 0.2 mph SW0.3 kmh SW 1.1 mph1.8 kmh 29.33 in993.2 mb 0.00 in0.0 mm 0.00 in0.0 mm 0.00 in0.0 mm
04:30 AM 42.1°F5.6°C 37.4°F3.0°C 79% 0.3 mph S0.5 kmh S 2.2 mph3.5 kmh 29.33 in993.2 mb 0.00 in0.0 mm 0.00 in0.0 mm 0.00 in0.0 mm
04:35 AM 41.7°F5.4°C 35.6°F2.0°C 79% 0.3 mph S0.5 kmh S 2.2 mph3.5 kmh 29.06 in984.1 mb 0.00 in0.0 mm 0.00 in0.0 mm 0.00 in0.0 mm
04:40 AM 41.4°F5.2°C 35.6°F2.0°C 79% Calm Calm -- 29.06 in984.1 mb 0.00 in0.0 mm 0.00 in0.0 mm 0.00 in0.0 mm
04:45 AM 41.4°F5.2°C 35.6°F2.0°C 79% 0.2 mph SSW0.3 kmh SSW 1.1 mph1.8 kmh 29.06 in984.1 mb 0.00 in0.0 mm 0.00 in0.0 mm 0.00 in0.0 mm
04:50 AM 41.4°F5.2°C 35.6°F2.0°C 79% 0.8 mph SW1.3 kmh SW 2.0 mph3.2 kmh 29.30 in992.2 mb 0.00 in0.0 mm 0.00 in0.0 mm 0.00 in0.0 mm
04:55 AM 41.2°F5.1°C 35.6°F2.0°C 79% 1.0 mph SSW1.6 kmh SSW 2.5 mph4.0 kmh 29.30 in992.2 mb 0.00 in0.0 mm 0.00 in0.0 mm 0.00 in0.0 mm
05:00 AM 40.8°F4.9°C 35.6°F2.0°C 79% 0.6 mph SSW1.0 kmh SSW 2.5 mph4.0 kmh 29.30 in992.2 mb 0.00 in0.0 mm 0.00 in0.0 mm 0.00 in0.0 mm
05:05 AM 40.3°F4.6°C 33.8°F1.0°C 79% 0.3 mph NW0.5 kmh NW 1.1 mph1.8 kmh 29.33 in993.2 mb 0.00 in0.0 mm 0.00 in0.0 mm 0.00 in0.0 mm
05:10 AM 39.9°F4.4°C 33.8°F1.0°C 79% 0.4 mph N0.6 kmh N 1.6 mph2.6 kmh 29.33 in993.2 mb 0.00 in0.0 mm 0.00 in0.0 mm 0.00 in0.0 mm
05:15 AM 39.7°F4.3°C 33.8°F1.0°C 79% 0.4 mph N0.6 kmh N 1.6 mph2.6 kmh 29.33 in993.2 mb 0.00 in0.0 mm 0.00 in0.0 mm 0.00 in0.0 mm
05:20 AM 39.7°F4.3°C 33.8°F1.0°C 79% 0.1 mph NW0.2 kmh NW 0.9 mph1.4 kmh 29.33 in993.2 mb 0.00 in0.0 mm 0.00 in0.0 mm 0.00 in0.0 mm
05:25 AM 39.7°F4.3°C 33.8°F1.0°C 79% 0.1 mph SW0.2 kmh SW 0.9 mph1.4 kmh 29.33 in993.2 mb 0.00 in0.0 mm 0.00 in0.0 mm 0.00 in0.0 mm
05:30 AM 39.9°F4.4°C 33.8°F1.0°C 80% 0.4 mph S0.6 kmh S 1.1 mph1.8 kmh 29.33 in993.2 mb 0.00 in0.0 mm 0.00 in0.0 mm 0.00 in0.0 mm
05:35 AM 39.7°F4.3°C 33.8°F1.0°C 80% 0.9 mph S1.4 kmh S 1.6 mph2.6 kmh 29.33 in993.2 mb 0.00 in0.0 mm 0.00 in0.0 mm 0.00 in0.0 mm
05:40 AM 39.9°F4.4°C 33.8°F1.0°C 80% 0.9 mph S1.4 kmh S 1.6 mph2.6 kmh 29.33 in993.2 mb 0.00 in0.0 mm 0.00 in0.0 mm 0.00 in0.0 mm
05:45 AM 39.6°F4.2°C 33.8°F1.0°C 80% 0.7 mph S1.1 kmh S 1.3 mph2.1 kmh 29.33 in993.2 mb 0.00 in0.0 mm 0.00 in0.0 mm 0.00 in0.0 mm
05:50 AM 39.4°F4.1°C 33.8°F1.0°C 80% 0.6 mph S1.0 kmh S 1.6 mph2.6 kmh 29.33 in993.2 mb 0.00 in0.0 mm 0.00 in0.0 mm 0.00 in0.0 mm
05:55 AM 39.4°F4.1°C 33.8°F1.0°C 80% 0.4 mph S0.6 kmh S 1.6 mph2.6 kmh 29.33 in993.2 mb 0.00 in0.0 mm 0.00 in0.0 mm 0.00 in0.0 mm
06:00 AM 39.4°F4.1°C 33.8°F1.0°C 81% 0.1 mph SSE0.2 kmh SSE 1.6 mph2.6 kmh 29.33 in993.2 mb 0.00 in0.0 mm 0.00 in0.0 mm 0.00 in0.0 mm
06:05 AM 39.6°F4.2°C 33.8°F1.0°C 81% Calm Calm -- 29.33 in993.2 mb 0.00 in0.0 mm 0.00 in0.0 mm 0.00 in0.0 mm
06:10 AM 39.6°F4.2°C 33.8°F1.0°C 81% 0.2 mph S0.3 kmh S 1.1 mph1.8 kmh 29.33 in993.2 mb 0.00 in0.0 mm 0.00 in0.0 mm 0.00 in0.0 mm
06:15 AM 39.7°F4.3°C 33.8°F1.0°C 81% 0.2 mph S0.3 kmh S 1.1 mph1.8 kmh 29.33 in993.2 mb 0.00 in0.0 mm 0.00 in0.0 mm 0.00 in0.0 mm
06:20 AM 39.6°F4.2°C 33.8°F1.0°C 81% 0.1 mph SSE0.2 kmh SSE 0.9 mph1.4 kmh 29.33 in993.2 mb 0.00 in0.0 mm 0.00 in0.0 mm 0.00 in0.0 mm
06:25 AM 39.6°F4.2°C 35.6°F2.0°C 82% 0.1 mph SSE0.2 kmh SSE 0.9 mph1.4 kmh 29.33 in993.2 mb 0.00 in0.0 mm 0.00 in0.0 mm 0.00 in0.0 mm
06:30 AM 39.6°F4.2°C 35.6°F2.0°C 82% 0.4 mph S0.6 kmh S 1.3 mph2.1 kmh 29.33 in993.2 mb 0.00 in0.0 mm 0.00 in0.0 mm 0.00 in0.0 mm
06:35 AM 39.6°F4.2°C 35.6°F2.0°C 82% 1.2 mph S1.9 kmh S 2.0 mph3.2 kmh 29.33 in993.2 mb 0.00 in0.0 mm 0.00 in0.0 mm 0.00 in0.0 mm
06:40 AM 39.4°F4.1°C 33.8°F1.0°C 82% 1.7 mph S2.7 kmh S 2.7 mph4.3 kmh 29.33 in993.2 mb 0.00 in0.0 mm 0.00 in0.0 mm 0.00 in0.0 mm
06:45 AM 39.4°F4.1°C 33.8°F1.0°C 82% 2.2 mph S3.5 kmh S 3.1 mph5.0 kmh 29.33 in993.2 mb 0.00 in0.0 mm 0.00 in0.0 mm 0.00 in0.0 mm
06:50 AM 39.2°F4.0°C 33.8°F1.0°C 82% 1.7 mph S2.7 kmh S 3.1 mph5.0 kmh 29.33 in993.2 mb 0.00 in0.0 mm 0.00 in0.0 mm 0.00 in0.0 mm
06:55 AM 38.7°F3.7°C 33.8°F1.0°C 82% 0.6 mph S1.0 kmh S 2.0 mph3.2 kmh 29.33 in993.2 mb 0.00 in0.0 mm 0.00 in0.0 mm 0.00 in0.0 mm
07:00 AM 38.3°F3.5°C 33.8°F1.0°C 82% 0.1 mph S0.2 kmh S 1.1 mph1.8 kmh 29.33 in993.2 mb 0.00 in0.0 mm 0.00 in0.0 mm 0.00 in0.0 mm
07:05 AM 38.1°F3.4°C 33.8°F1.0°C 81% Calm Calm -- 29.33 in993.2 mb 0.00 in0.0 mm 0.00 in0.0 mm 0.00 in0.0 mm
07:10 AM 38.7°F3.7°C 33.8°F1.0°C 82% 0.6 mph S1.0 kmh S 2.0 mph3.2 kmh 29.33 in993.2 mb 0.00 in0.0 mm 0.00 in0.0 mm 0.00 in0.0 mm
07:15 AM 38.3°F3.5°C 33.8°F1.0°C 82% 1.3 mph S2.1 kmh S 2.2 mph3.5 kmh 29.33 in993.2 mb 0.00 in0.0 mm 0.00 in0.0 mm 0.00 in0.0 mm
07:20 AM 37.8°F3.2°C 33.8°F1.0°C 82% 0.6 mph S1.0 kmh S 2.2 mph3.5 kmh 29.33 in993.2 mb 0.00 in0.0 mm 0.00 in0.0 mm 0.00 in0.0 mm
07:25 AM 37.6°F3.1°C 33.8°F1.0°C 82% Calm Calm -- 29.33 in993.2 mb 0.00 in0.0 mm 0.00 in0.0 mm 0.00 in0.0 mm
07:30 AM 37.2°F2.9°C 32.0°F0.0°C 81% 0.2 mph SSE0.3 kmh SSE 0.9 mph1.4 kmh 29.33 in993.2 mb 0.00 in0.0 mm 0.00 in0.0 mm 0.00 in0.0 mm
07:35 AM 37.0°F2.8°C 32.0°F0.0°C 81% 0.2 mph SSE0.3 kmh SSE 0.9 mph1.4 kmh 29.33 in993.2 mb 0.00 in0.0 mm 0.00 in0.0 mm 0.00 in0.0 mm
07:40 AM 37.0°F2.8°C 32.0°F0.0°C 81% 0.1 mph SSE0.2 kmh SSE 0.9 mph1.4 kmh 29.33 in993.2 mb 0.00 in0.0 mm 0.00 in0.0 mm 0.00 in0.0 mm
07:45 AM 37.0°F2.8°C 33.8°F1.0°C 82% 0.1 mph SW0.2 kmh SW 1.1 mph1.8 kmh 29.33 in993.2 mb 0.00 in0.0 mm 0.00 in0.0 mm 0.00 in0.0 mm
07:50 AM 37.2°F2.9°C 33.8°F1.0°C 82% 0.1 mph W0.2 kmh W 1.1 mph1.8 kmh 29.33 in993.2 mb 0.00 in0.0 mm 0.00 in0.0 mm 0.00 in0.0 mm
07:55 AM 37.2°F2.9°C 33.8°F1.0°C 82% 0.2 mph NW0.3 kmh NW 1.1 mph1.8 kmh 29.33 in993.2 mb 0.00 in0.0 mm 0.00 in0.0 mm 0.00 in0.0 mm
08:00 AM 37.4°F3.0°C 33.8°F1.0°C 82% 0.3 mph W0.5 kmh W 1.3 mph2.1 kmh 29.33 in993.2 mb 0.00 in0.0 mm 0.00 in0.0 mm 0.00 in0.0 mm
08:05 AM 37.8°F3.2°C 33.8°F1.0°C 82% 0.2 mph SW0.3 kmh SW 1.3 mph2.1 kmh 29.33 in993.2 mb 0.00 in0.0 mm 0.00 in0.0 mm 0.00 in0.0 mm
08:10 AM 38.3°F3.5°C 33.8°F1.0°C 83% 0.3 mph SW0.5 kmh SW 1.6 mph2.6 kmh 29.33 in993.2 mb 0.00 in0.0 mm 0.00 in0.0 mm 0.00 in0.0 mm
08:15 AM 39.0°F3.9°C 33.8°F1.0°C 83% 0.7 mph SW1.1 kmh SW 1.6 mph2.6 kmh 29.33 in993.2 mb 0.00 in0.0 mm 0.00 in0.0 mm 0.00 in0.0 mm
08:20 AM 39.0°F3.9°C 33.8°F1.0°C 83% 0.8 mph W1.3 kmh W 1.1 mph1.8 kmh 29.33 in993.2 mb 0.00 in0.0 mm 0.00 in0.0 mm 0.00 in0.0 mm
08:25 AM 39.4°F4.1°C 33.8°F1.0°C 83% 0.3 mph NNW0.5 kmh NNW 1.1 mph1.8 kmh 29.33 in993.2 mb 0.00 in0.0 mm 0.00 in0.0 mm 0.00 in0.0 mm
08:30 AM 39.7°F4.3°C 35.6°F2.0°C 83% 0.4 mph WSW0.6 kmh WSW 2.2 mph3.5 kmh 29.33 in993.2 mb 0.00 in0.0 mm 0.00 in0.0 mm 0.00 in0.0 mm
08:35 AM 40.5°F4.7°C 35.6°F2.0°C 83% 0.5 mph SW0.8 kmh SW 2.2 mph3.5 kmh 29.33 in993.2 mb 0.00 in0.0 mm 0.00 in0.0 mm 0.00 in0.0 mm
08:40 AM 41.2°F5.1°C 37.4°F3.0°C 83% 0.8 mph SSW1.3 kmh SSW 2.5 mph4.0 kmh 29.33 in993.2 mb 0.00 in0.0 mm 0.00 in0.0 mm 0.00 in0.0 mm
08:45 AM 41.9°F5.5°C 37.4°F3.0°C 83% 1.7 mph SSW2.7 kmh SSW 3.6 mph5.8 kmh 29.33 in993.2 mb 0.00 in0.0 mm 0.00 in0.0 mm 0.00 in0.0 mm
08:50 AM 42.3°F5.7°C 37.4°F3.0°C 83% 2.2 mph SSW3.5 kmh SSW 3.6 mph5.8 kmh 29.33 in993.2 mb 0.00 in0.0 mm 0.00 in0.0 mm 0.00 in0.0 mm
08:55 AM 42.4°F5.8°C 37.4°F3.0°C 83% 1.3 mph SW2.1 kmh SW 3.4 mph5.5 kmh 29.33 in993.2 mb 0.00 in0.0 mm 0.00 in0.0 mm 0.00 in0.0 mm
09:00 AM 42.8°F6.0°C 37.4°F3.0°C 83% 0.9 mph SSW1.4 kmh SSW 2.5 mph4.0 kmh 29.33 in993.2 mb 0.00 in0.0 mm 0.00 in0.0 mm 0.00 in0.0 mm
09:05 AM 43.0°F6.1°C 37.4°F3.0°C 83% 0.9 mph SW1.4 kmh SW 2.5 mph4.0 kmh 29.33 in993.2 mb 0.00 in0.0 mm 0.00 in0.0 mm 0.00 in0.0 mm
09:10 AM 43.5°F6.4°C 39.2°F4.0°C 83% 1.2 mph SW1.9 kmh SW 3.6 mph5.8 kmh 29.33 in993.2 mb 0.00 in0.0 mm 0.00 in0.0 mm 0.00 in0.0 mm
09:15 AM 43.7°F6.5°C 39.2°F4.0°C 83% 1.8 mph SSW2.9 kmh SSW 3.6 mph5.8 kmh 29.33 in993.2 mb 0.00 in0.0 mm 0.00 in0.0 mm 0.00 in0.0 mm
09:20 AM 43.9°F6.6°C 39.2°F4.0°C 83% 2.0 mph SSW3.2 kmh SSW 3.6 mph5.8 kmh 29.33 in993.2 mb 0.00 in0.0 mm 0.00 in0.0 mm 0.00 in0.0 mm
09:25 AM 44.2°F6.8°C 39.2°F4.0°C 83% 2.0 mph S3.2 kmh S 3.4 mph5.5 kmh 29.33 in993.2 mb 0.00 in0.0 mm 0.00 in0.0 mm 0.00 in0.0 mm
09:30 AM 44.6°F7.0°C 39.2°F4.0°C 82% 1.8 mph S2.9 kmh S 3.1 mph5.0 kmh 29.33 in993.2 mb 0.00 in0.0 mm 0.00 in0.0 mm 0.00 in0.0 mm
09:35 AM 44.8°F7.1°C 39.2°F4.0°C 82% 1.5 mph S2.4 kmh S 3.6 mph5.8 kmh 29.33 in993.2 mb 0.00 in0.0 mm 0.00 in0.0 mm 0.00 in0.0 mm
09:40 AM 45.3°F7.4°C 41.0°F5.0°C 82% 2.5 mph S4.0 kmh S 5.4 mph8.7 kmh 29.33 in993.2 mb 0.00 in0.0 mm 0.00 in0.0 mm 0.00 in0.0 mm
09:45 AM 45.9°F7.7°C 41.0°F5.0°C 82% 3.4 mph S5.5 kmh S 7.2 mph11.6 kmh 29.33 in993.2 mb 0.00 in0.0 mm 0.00 in0.0 mm 0.00 in0.0 mm
09:50 AM 46.0°F7.8°C 41.0°F5.0°C 81% 3.6 mph SSW5.8 kmh SSW 7.2 mph11.6 kmh 29.36 in994.2 mb 0.00 in0.0 mm 0.00 in0.0 mm 0.00 in0.0 mm
09:55 AM 46.2°F7.9°C 41.0°F5.0°C 81% 3.5 mph SSW5.6 kmh SSW 7.4 mph11.9 kmh 29.36 in994.2 mb 0.00 in0.0 mm 0.00 in0.0 mm 0.00 in0.0 mm
10:00 AM 46.4°F8.0°C 41.0°F5.0°C 81% 3.5 mph SW5.6 kmh SW 7.4 mph11.9 kmh 29.36 in994.2 mb 0.00 in0.0 mm 0.00 in0.0 mm 0.00 in0.0 mm
10:05 AM 46.8°F8.2°C 41.0°F5.0°C 80% 4.5 mph SW7.2 kmh SW 8.5 mph13.7 kmh 29.36 in994.2 mb 0.00 in0.0 mm 0.00 in0.0 mm 0.00 in0.0 mm
10:10 AM 46.8°F8.2°C 41.0°F5.0°C 80% 5.0 mph SSW8.0 kmh SSW 8.5 mph13.7 kmh 29.36 in994.2 mb 0.00 in0.0 mm 0.00 in0.0 mm 0.00 in0.0 mm
10:15 AM 47.3°F8.5°C 42.8°F6.0°C 80% 5.0 mph SW8.0 kmh SW 7.6 mph12.2 kmh 29.36 in994.2 mb 0.00 in0.0 mm 0.00 in0.0 mm 0.00 in0.0 mm
10:20 AM 47.5°F8.6°C 42.8°F6.0°C 79% 5.4 mph SW8.7 kmh SW 8.7 mph14.0 kmh 29.36 in994.2 mb 0.00 in0.0 mm 0.00 in0.0 mm 0.00 in0.0 mm
10:25 AM 47.7°F8.7°C 42.8°F6.0°C 79% 5.6 mph SW9.0 kmh SW 8.7 mph14.0 kmh 29.36 in994.2 mb 0.00 in0.0 mm 0.00 in0.0 mm 0.00 in0.0 mm
10:30 AM 47.8°F8.8°C 42.8°F6.0°C 79% 4.3 mph SW6.9 kmh SW 8.1 mph13.0 kmh 29.36 in994.2 mb 0.00 in0.0 mm 0.00 in0.0 mm 0.00 in0.0 mm
10:35 AM 48.0°F8.9°C 42.8°F6.0°C 78% 3.9 mph SW6.3 kmh SW 6.5 mph10.5 kmh 29.36 in994.2 mb 0.00 in0.0 mm 0.00 in0.0 mm 0.00 in0.0 mm
10:40 AM 48.4°F9.1°C 42.8°F6.0°C 78% 3.9 mph WSW6.3 kmh WSW 6.5 mph10.5 kmh 29.36 in994.2 mb 0.00 in0.0 mm 0.00 in0.0 mm 0.00 in0.0 mm
10:45 AM 48.7°F9.3°C 42.8°F6.0°C 78% 4.8 mph WSW7.7 kmh WSW 10.3 mph16.6 kmh 29.36 in994.2 mb 0.00 in0.0 mm 0.00 in0.0 mm 0.00 in0.0 mm
10:50 AM 48.9°F9.4°C 42.8°F6.0°C 78% 6.1 mph WSW9.8 kmh WSW 11.0 mph17.7 kmh 29.36 in994.2 mb 0.00 in0.0 mm 0.00 in0.0 mm 0.00 in0.0 mm
10:55 AM 49.5°F9.7°C 42.8°F6.0°C 77% 5.3 mph WSW8.5 kmh WSW 11.0 mph17.7 kmh 29.36 in994.2 mb 0.00 in0.0 mm 0.00 in0.0 mm 0.00 in0.0 mm
11:00 AM 50.0°F10.0°C 42.8°F6.0°C 77% 5.5 mph WSW8.9 kmh WSW 11.0 mph17.7 kmh 29.36 in994.2 mb 0.00 in0.0 mm 0.00 in0.0 mm 0.00 in0.0 mm
11:05 AM 51.8°F11.0°C 44.6°F7.0°C 75% 6.3 mph WSW10.1 kmh WSW 9.6 mph15.4 kmh 29.39 in995.3 mb 0.00 in0.0 mm 0.00 in0.0 mm 0.00 in0.0 mm
11:10 AM 52.7°F11.5°C 44.6°F7.0°C 74% 6.1 mph SW9.8 kmh SW 8.1 mph13.0 kmh 29.39 in995.3 mb 0.00 in0.0 mm 0.00 in0.0 mm 0.00 in0.0 mm
11:15 AM 54.0°F12.2°C 46.4°F8.0°C 72% 5.8 mph SW9.3 kmh SW 7.8 mph12.6 kmh 29.39 in995.3 mb 0.00 in0.0 mm 0.00 in0.0 mm 0.00 in0.0 mm
11:20 AM 54.9°F12.7°C 46.4°F8.0°C 70% 5.6 mph SW9.0 kmh SW 8.1 mph13.0 kmh 29.39 in995.3 mb 0.00 in0.0 mm 0.00 in0.0 mm 0.00 in0.0 mm
11:25 AM 55.4°F13.0°C 46.4°F8.0°C 70% 5.3 mph WSW8.5 kmh WSW 10.5 mph16.9 kmh 29.39 in995.3 mb 0.00 in0.0 mm 0.00 in0.0 mm 0.00 in0.0 mm
11:30 AM 56.3°F13.5°C 46.4°F8.0°C 69% 4.2 mph SW6.8 kmh SW 10.5 mph16.9 kmh 29.39 in995.3 mb 0.00 in0.0 mm 0.00 in0.0 mm 0.00 in0.0 mm
11:35 AM 57.2°F14.0°C 48.2°F9.0°C 69% 3.8 mph SW6.1 kmh SW 7.2 mph11.6 kmh 29.39 in995.3 mb 0.00 in0.0 mm 0.00 in0.0 mm 0.00 in0.0 mm
11:40 AM 57.6°F14.2°C 48.2°F9.0°C 67% 4.0 mph SW6.4 kmh SW 8.5 mph13.7 kmh 29.39 in995.3 mb 0.00 in0.0 mm 0.00 in0.0 mm 0.00 in0.0 mm
11:45 AM 56.7°F13.7°C 46.4°F8.0°C 68% 4.8 mph SW7.7 kmh SW 9.8 mph15.8 kmh 29.39 in995.3 mb 0.00 in0.0 mm 0.00 in0.0 mm 0.00 in0.0 mm
11:50 AM 56.5°F13.6°C 46.4°F8.0°C 67% 6.4 mph WSW10.3 kmh WSW 10.1 mph16.3 kmh 29.39 in995.3 mb 0.00 in0.0 mm 0.00 in0.0 mm 0.00 in0.0 mm
11:55 AM 56.5°F13.6°C 46.4°F8.0°C 67% 7.4 mph WSW11.9 kmh WSW 11.0 mph17.7 kmh 29.39 in995.3 mb 0.00 in0.0 mm 0.00 in0.0 mm 0.00 in0.0 mm
12:00 PM 57.9°F14.4°C 46.4°F8.0°C 66% 7.4 mph WSW11.9 kmh WSW 11.0 mph17.7 kmh 29.39 in995.3 mb 0.00 in0.0 mm 0.00 in0.0 mm 0.00 in0.0 mm
12:05 PM 57.9°F14.4°C 46.4°F8.0°C 65% 5.8 mph WSW9.3 kmh WSW 10.3 mph16.6 kmh 29.39 in995.3 mb 0.00 in0.0 mm 0.00 in0.0 mm 0.00 in0.0 mm
12:10 PM 58.1°F14.5°C 48.2°F9.0°C 65% 5.0 mph SW8.0 kmh SW 6.3 mph10.1 kmh 29.39 in995.3 mb 0.00 in0.0 mm 0.00 in0.0 mm 0.00 in0.0 mm
12:15 PM 58.1°F14.5°C 46.4°F8.0°C 64% 6.9 mph SW11.1 kmh SW 13.0 mph20.9 kmh 29.39 in995.3 mb 0.00 in0.0 mm 0.00 in0.0 mm 0.00 in0.0 mm
12:20 PM 59.2°F15.1°C 46.4°F8.0°C 63% 6.9 mph SW11.1 kmh SW 13.0 mph20.9 kmh 29.39 in995.3 mb 0.00 in0.0 mm 0.00 in0.0 mm 0.00 in0.0 mm
12:25 PM 59.0°F15.0°C 48.2°F9.0°C 64% 7.3 mph SW11.7 kmh SW 15.2 mph24.5 kmh 29.39 in995.3 mb 0.00 in0.0 mm 0.00 in0.0 mm 0.00 in0.0 mm
12:30 PM 59.9°F15.5°C 48.2°F9.0°C 62% 6.3 mph WSW10.1 kmh WSW 15.2 mph24.5 kmh 29.39 in995.3 mb 0.00 in0.0 mm 0.00 in0.0 mm 0.00 in0.0 mm
12:35 PM 60.8°F16.0°C 48.2°F9.0°C 62% 4.3 mph WSW6.9 kmh WSW 10.5 mph16.9 kmh 29.39 in995.3 mb 0.00 in0.0 mm 0.00 in0.0 mm 0.00 in0.0 mm
12:40 PM 60.4°F15.8°C 48.2°F9.0°C 62% 6.2 mph SW10.0 kmh SW 11.9 mph19.2 kmh 29.39 in995.3 mb 0.00 in0.0 mm 0.00 in0.0 mm 0.00 in0.0 mm
12:45 PM 59.9°F15.5°C 46.4°F8.0°C 61% 6.4 mph SW10.3 kmh SW 11.9 mph19.2 kmh 29.39 in995.3 mb 0.00 in0.0 mm 0.00 in0.0 mm 0.00 in0.0 mm
12:50 PM 59.9°F15.5°C 46.4°F8.0°C 61% 6.0 mph SW9.7 kmh SW 10.7 mph17.2 kmh 29.39 in995.3 mb 0.00 in0.0 mm 0.00 in0.0 mm 0.00 in0.0 mm
12:55 PM 59.5°F15.3°C 46.4°F8.0°C 61% 7.0 mph SW11.3 kmh SW 10.7 mph17.2 kmh 29.39 in995.3 mb 0.00 in0.0 mm 0.00 in0.0 mm 0.00 in0.0 mm
01:00 PM 59.4°F15.2°C 46.4°F8.0°C 61% 7.4 mph SW11.9 kmh SW 10.1 mph16.3 kmh 29.39 in995.3 mb 0.00 in0.0 mm 0.00 in0.0 mm 0.00 in0.0 mm
01:05 PM 60.1°F15.6°C 46.4°F8.0°C 61% 6.1 mph SW9.8 kmh SW 10.1 mph16.3 kmh 29.39 in995.3 mb 0.00 in0.0 mm 0.00 in0.0 mm 0.00 in0.0 mm
01:10 PM 59.2°F15.1°C 46.4°F8.0°C 61% 5.5 mph SW8.9 kmh SW 8.5 mph13.7 kmh 29.39 in995.3 mb 0.00 in0.0 mm 0.00 in0.0 mm 0.00 in0.0 mm
01:15 PM 58.6°F14.8°C 44.6°F7.0°C 60% 5.9 mph WSW9.5 kmh WSW 8.7 mph14.0 kmh 29.39 in995.3 mb 0.00 in0.0 mm 0.00 in0.0 mm 0.00 in0.0 mm
01:20 PM 59.4°F15.2°C 46.4°F8.0°C 60% 4.6 mph WSW7.4 kmh WSW 8.7 mph14.0 kmh 29.39 in995.3 mb 0.00 in0.0 mm 0.00 in0.0 mm 0.00 in0.0 mm
01:25 PM 58.8°F14.9°C 46.4°F8.0°C 60% 5.4 mph SW8.7 kmh SW 9.8 mph15.8 kmh 29.39 in995.3 mb 0.00 in0.0 mm 0.00 in0.0 mm 0.00 in0.0 mm
01:30 PM 58.6°F14.8°C 44.6°F7.0°C 60% 5.8 mph WSW9.3 kmh WSW 9.8 mph15.8 kmh 29.39 in995.3 mb 0.00 in0.0 mm 0.00 in0.0 mm 0.00 in0.0 mm
01:35 PM 58.1°F14.5°C 44.6°F7.0°C 60% 5.8 mph WSW9.3 kmh WSW 8.7 mph14.0 kmh 29.39 in995.3 mb 0.00 in0.0 mm 0.00 in0.0 mm 0.00 in0.0 mm
01:40 PM 57.7°F14.3°C 44.6°F7.0°C 59% 6.4 mph WSW10.3 kmh WSW 10.7 mph17.2 kmh 29.39 in995.3 mb 0.00 in0.0 mm 0.00 in0.0 mm 0.00 in0.0 mm
01:45 PM 57.4°F14.1°C 42.8°F6.0°C 59% 6.8 mph WSW10.9 kmh WSW 12.3 mph19.8 kmh 29.39 in995.3 mb 0.00 in0.0 mm 0.00 in0.0 mm 0.00 in0.0 mm
01:50 PM 57.7°F14.3°C 44.6°F7.0°C 59% 6.4 mph W10.3 kmh W 12.3 mph19.8 kmh 29.39 in995.3 mb 0.00 in0.0 mm 0.00 in0.0 mm 0.00 in0.0 mm
01:55 PM 57.6°F14.2°C 44.6°F7.0°C 60% 5.3 mph WSW8.5 kmh WSW 10.7 mph17.2 kmh 29.39 in995.3 mb 0.00 in0.0 mm 0.00 in0.0 mm 0.00 in0.0 mm
02:00 PM 57.2°F14.0°C 44.6°F7.0°C 60% 4.5 mph WSW7.2 kmh WSW 8.5 mph13.7 kmh 29.39 in995.3 mb 0.00 in0.0 mm 0.00 in0.0 mm 0.00 in0.0 mm
02:05 PM 57.2°F14.0°C 44.6°F7.0°C 61% 5.2 mph SW8.4 kmh SW 7.8 mph12.6 kmh 29.39 in995.3 mb 0.00 in0.0 mm 0.00 in0.0 mm 0.00 in0.0 mm
02:10 PM 57.0°F13.9°C 44.6°F7.0°C 60% 6.0 mph SW9.7 kmh SW 8.7 mph14.0 kmh 29.39 in995.3 mb 0.00 in0.0 mm 0.00 in0.0 mm 0.00 in0.0 mm
02:15 PM 56.8°F13.8°C 42.8°F6.0°C 60% 4.8 mph SW7.7 kmh SW 8.7 mph14.0 kmh 29.39 in995.3 mb 0.00 in0.0 mm 0.00 in0.0 mm 0.00 in0.0 mm
02:20 PM 57.0°F13.9°C 44.6°F7.0°C 60% 4.1 mph SW6.6 kmh SW 6.5 mph10.5 kmh 29.39 in995.3 mb 0.00 in0.0 mm 0.00 in0.0 mm 0.00 in0.0 mm
02:25 PM 57.2°F14.0°C 44.6°F7.0°C 61% 4.2 mph SW6.8 kmh SW 6.5 mph10.5 kmh 29.39 in995.3 mb 0.00 in0.0 mm 0.00 in0.0 mm 0.00 in0.0 mm
02:30 PM 57.2°F14.0°C 44.6°F7.0°C 61% 4.3 mph SW6.9 kmh SW 6.5 mph10.5 kmh 29.39 in995.3 mb 0.00 in0.0 mm 0.00 in0.0 mm 0.00 in0.0 mm
02:35 PM 57.2°F14.0°C 44.6°F7.0°C 61% 4.3 mph SW6.9 kmh SW 7.4 mph11.9 kmh 29.39 in995.3 mb 0.00 in0.0 mm 0.00 in0.0 mm 0.00 in0.0 mm
02:40 PM 57.2°F14.0°C 44.6°F7.0°C 61% 3.8 mph SW6.1 kmh SW 7.6 mph12.2 kmh 29.39 in995.3 mb 0.00 in0.0 mm 0.00 in0.0 mm 0.00 in0.0 mm
02:45 PM 57.0°F13.9°C 44.6°F7.0°C 61% 4.3 mph SW6.9 kmh SW 7.6 mph12.2 kmh 29.39 in995.3 mb 0.00 in0.0 mm 0.00 in0.0 mm 0.00 in0.0 mm
02:50 PM 56.8°F13.8°C 44.6°F7.0°C 62% 6.1 mph SSW9.8 kmh SSW 10.7 mph17.2 kmh 29.39 in995.3 mb 0.00 in0.0 mm 0.00 in0.0 mm 0.00 in0.0 mm
02:55 PM 56.7°F13.7°C 44.6°F7.0°C 62% 7.6 mph SSW12.2 kmh SSW 12.8 mph20.6 kmh 29.36 in994.2 mb 0.00 in0.0 mm 0.00 in0.0 mm 0.00 in0.0 mm
03:00 PM 56.5°F13.6°C 44.6°F7.0°C 62% 10.3 mph SSW16.6 kmh SSW 16.1 mph25.9 kmh 29.36 in994.2 mb 0.00 in0.0 mm 0.00 in0.0 mm 0.00 in0.0 mm
03:05 PM 56.3°F13.5°C 44.6°F7.0°C 62% 10.8 mph SSW17.4 kmh SSW 16.1 mph25.9 kmh 29.36 in994.2 mb 0.00 in0.0 mm 0.00 in0.0 mm 0.00 in0.0 mm
03:10 PM 56.3°F13.5°C 44.6°F7.0°C 62% 7.4 mph SSW11.9 kmh SSW 11.0 mph17.7 kmh 29.39 in995.3 mb 0.00 in0.0 mm 0.00 in0.0 mm 0.00 in0.0 mm
03:15 PM 56.1°F13.4°C 44.6°F7.0°C 63% 6.0 mph SW9.7 kmh SW 8.1 mph13.0 kmh 29.39 in995.3 mb 0.00 in0.0 mm 0.00 in0.0 mm 0.00 in0.0 mm
03:20 PM 56.3°F13.5°C 44.6°F7.0°C 62% 4.7 mph SW7.6 kmh SW 7.4 mph11.9 kmh 29.39 in995.3 mb 0.00 in0.0 mm 0.00 in0.0 mm 0.00 in0.0 mm
03:25 PM 56.1°F13.4°C 42.8°F6.0°C 62% 3.9 mph SW6.3 kmh SW 6.5 mph10.5 kmh 29.39 in995.3 mb 0.00 in0.0 mm 0.00 in0.0 mm 0.00 in0.0 mm
03:30 PM 55.8°F13.2°C 42.8°F6.0°C 62% 3.9 mph SW6.3 kmh SW 6.5 mph10.5 kmh 29.39 in995.3 mb 0.00 in0.0 mm 0.00 in0.0 mm 0.00 in0.0 mm
03:35 PM 55.6°F13.1°C 42.8°F6.0°C 62% 3.4 mph SW5.5 kmh SW 6.5 mph10.5 kmh 29.39 in995.3 mb 0.00 in0.0 mm 0.00 in0.0 mm 0.00 in0.0 mm
03:40 PM 55.4°F13.0°C 44.6°F7.0°C 64% 4.5 mph SSW7.2 kmh SSW 7.4 mph11.9 kmh 29.39 in995.3 mb 0.00 in0.0 mm 0.00 in0.0 mm 0.00 in0.0 mm
03:45 PM 55.0°F12.8°C 44.6°F7.0°C 64% 4.6 mph SSW7.4 kmh SSW 7.4 mph11.9 kmh 29.39 in995.3 mb 0.00 in0.0 mm 0.00 in0.0 mm 0.00 in0.0 mm
03:50 PM 54.9°F12.7°C 42.8°F6.0°C 64% 3.0 mph SW4.8 kmh SW 7.2 mph11.6 kmh 29.39 in995.3 mb 0.00 in0.0 mm 0.00 in0.0 mm 0.00 in0.0 mm
03:55 PM 54.7°F12.6°C 42.8°F6.0°C 64% 2.1 mph SW3.4 kmh SW 6.0 mph9.7 kmh 29.39 in995.3 mb 0.00 in0.0 mm 0.00 in0.0 mm 0.00 in0.0 mm
04:00 PM 54.3°F12.4°C 42.8°F6.0°C 64% 1.3 mph SW2.1 kmh SW 2.7 mph4.3 kmh 29.39 in995.3 mb 0.00 in0.0 mm 0.00 in0.0 mm 0.00 in0.0 mm
04:05 PM 54.1°F12.3°C 42.8°F6.0°C 65% 1.4 mph SSW2.3 kmh SSW 3.4 mph5.5 kmh 29.39 in995.3 mb 0.00 in0.0 mm 0.00 in0.0 mm 0.00 in0.0 mm
04:10 PM 54.0°F12.2°C 42.8°F6.0°C 66% 1.8 mph SSW2.9 kmh SSW 3.4 mph5.5 kmh 29.36 in994.2 mb 0.00 in0.0 mm 0.00 in0.0 mm 0.00 in0.0 mm
04:15 PM 53.8°F12.1°C 42.8°F6.0°C 65% 1.8 mph SSW2.9 kmh SSW 3.1 mph5.0 kmh 29.36 in994.2 mb 0.00 in0.0 mm 0.00 in0.0 mm 0.00 in0.0 mm
04:20 PM 53.8°F12.1°C 42.8°F6.0°C 66% 2.3 mph SSW3.7 kmh SSW 3.4 mph5.5 kmh 29.36 in994.2 mb 0.00 in0.0 mm 0.00 in0.0 mm 0.00 in0.0 mm
04:25 PM 53.6°F12.0°C 42.8°F6.0°C 66% 2.3 mph SSW3.7 kmh SSW 3.4 mph5.5 kmh 29.36 in994.2 mb 0.00 in0.0 mm 0.00 in0.0 mm 0.00 in0.0 mm
04:30 PM 53.4°F11.9°C 42.8°F6.0°C 66% 2.1 mph S3.4 kmh S 3.1 mph5.0 kmh 29.36 in994.2 mb 0.00 in0.0 mm 0.00 in0.0 mm 0.00 in0.0 mm
04:35 PM 53.2°F11.8°C 42.8°F6.0°C 67% 2.5 mph S4.0 kmh S 3.6 mph5.8 kmh 29.36 in994.2 mb 0.00 in0.0 mm 0.00 in0.0 mm 0.00 in0.0 mm
04:40 PM 53.1°F11.7°C 42.8°F6.0°C 67% 2.8 mph S4.5 kmh S 4.9 mph7.9 kmh 29.36 in994.2 mb 0.00 in0.0 mm 0.00 in0.0 mm 0.00 in0.0 mm
04:45 PM 52.9°F11.6°C 42.8°F6.0°C 67% 2.4 mph S3.9 kmh S 4.9 mph7.9 kmh 29.36 in994.2 mb 0.00 in0.0 mm 0.00 in0.0 mm 0.00 in0.0 mm
04:50 PM 52.7°F11.5°C 42.8°F6.0°C 67% 1.9 mph S3.1 kmh S 2.7 mph4.3 kmh 29.36 in994.2 mb 0.00 in0.0 mm 0.00 in0.0 mm 0.00 in0.0 mm
04:55 PM 52.2°F11.2°C 42.8°F6.0°C 67% 2.1 mph S3.4 kmh S 3.1 mph5.0 kmh 29.36 in994.2 mb 0.00 in0.0 mm 0.00 in0.0 mm 0.00 in0.0 mm
05:00 PM 52.0°F11.1°C 42.8°F6.0°C 68% 2.1 mph S3.4 kmh S 3.1 mph5.0 kmh 29.36 in994.2 mb 0.00 in0.0 mm 0.00 in0.0 mm 0.00 in0.0 mm
05:05 PM 51.6°F10.9°C 42.8°F6.0°C 68% 2.2 mph S3.5 kmh S 3.1 mph5.0 kmh 29.36 in994.2 mb 0.00 in0.0 mm 0.00 in0.0 mm 0.00 in0.0 mm
05:10 PM 51.4°F10.8°C 41.0°F5.0°C 68% 2.6 mph S4.2 kmh S 3.8 mph6.1 kmh 29.36 in994.2 mb 0.00 in0.0 mm 0.00 in0.0 mm 0.00 in0.0 mm
05:15 PM 51.6°F10.9°C 42.8°F6.0°C 68% 2.2 mph S3.5 kmh S 3.8 mph6.1 kmh 29.36 in994.2 mb 0.00 in0.0 mm 0.00 in0.0 mm 0.00 in0.0 mm
05:20 PM 51.4°F10.8°C 41.0°F5.0°C 68% 1.8 mph S2.9 kmh S 2.9 mph4.7 kmh 29.36 in994.2 mb 0.00 in0.0 mm 0.00 in0.0 mm 0.00 in0.0 mm
05:25 PM 51.4°F10.8°C 41.0°F5.0°C 68% 1.1 mph S1.8 kmh S 2.9 mph4.7 kmh 29.36 in994.2 mb 0.00 in0.0 mm 0.00 in0.0 mm 0.00 in0.0 mm
05:30 PM 51.3°F10.7°C 41.0°F5.0°C 68% 0.2 mph S0.3 kmh S 1.3 mph2.1 kmh 29.36 in994.2 mb 0.00 in0.0 mm 0.00 in0.0 mm 0.00 in0.0 mm
05:35 PM 51.3°F10.7°C 41.0°F5.0°C 68% 0.4 mph ESE0.6 kmh ESE 1.1 mph1.8 kmh 29.36 in994.2 mb 0.00 in0.0 mm 0.00 in0.0 mm 0.00 in0.0 mm
05:40 PM 51.3°F10.7°C 41.0°F5.0°C 68% 0.6 mph SE1.0 kmh SE 1.3 mph2.1 kmh 29.36 in994.2 mb 0.00 in0.0 mm 0.00 in0.0 mm 0.00 in0.0 mm
05:45 PM 51.4°F10.8°C 41.0°F5.0°C 68% 0.6 mph SSE1.0 kmh SSE 1.3 mph2.1 kmh 29.36 in994.2 mb 0.00 in0.0 mm 0.00 in0.0 mm 0.00 in0.0 mm
05:50 PM 51.4°F10.8°C 41.0°F5.0°C 68% 0.4 mph SSE0.6 kmh SSE 1.3 mph2.1 kmh 29.36 in994.2 mb 0.00 in0.0 mm 0.00 in0.0 mm 0.00 in0.0 mm
05:55 PM 51.4°F10.8°C 41.0°F5.0°C 68% 0.4 mph SE0.6 kmh SE 1.3 mph2.1 kmh 29.36 in994.2 mb 0.00 in0.0 mm 0.00 in0.0 mm 0.00 in0.0 mm
06:00 PM 51.1°F10.6°C 41.0°F5.0°C 68% 0.3 mph ESE0.5 kmh ESE 1.3 mph2.1 kmh 29.36 in994.2 mb 0.00 in0.0 mm 0.00 in0.0 mm 0.00 in0.0 mm
06:05 PM 50.9°F10.5°C 41.0°F5.0°C 68% 0.1 mph ENE0.2 kmh ENE 0.9 mph1.4 kmh 29.36 in994.2 mb 0.00 in0.0 mm 0.00 in0.0 mm 0.00 in0.0 mm
06:10 PM 51.1°F10.6°C 41.0°F5.0°C 68% 0.2 mph ESE0.3 kmh ESE 0.9 mph1.4 kmh 29.36 in994.2 mb 0.00 in0.0 mm 0.00 in0.0 mm 0.00 in0.0 mm
06:15 PM 51.1°F10.6°C 41.0°F5.0°C 68% 0.4 mph ESE0.6 kmh ESE 1.6 mph2.6 kmh 29.36 in994.2 mb 0.00 in0.0 mm 0.00 in0.0 mm 0.00 in0.0 mm
06:20 PM 51.1°F10.6°C 41.0°F5.0°C 68% 0.6 mph SE1.0 kmh SE 2.0 mph3.2 kmh 29.36 in994.2 mb 0.00 in0.0 mm 0.00 in0.0 mm 0.00 in0.0 mm
06:25 PM 51.1°F10.6°C 41.0°F5.0°C 68% 0.6 mph SSE1.0 kmh SSE 2.0 mph3.2 kmh 29.33 in993.2 mb 0.00 in0.0 mm 0.00 in0.0 mm 0.00 in0.0 mm
06:30 PM 50.9°F10.5°C 41.0°F5.0°C 69% 0.5 mph SSE0.8 kmh SSE 2.0 mph3.2 kmh 29.33 in993.2 mb 0.00 in0.0 mm 0.00 in0.0 mm 0.00 in0.0 mm
06:35 PM 50.9°F10.5°C 41.0°F5.0°C 69% 0.2 mph E0.3 kmh E 1.1 mph1.8 kmh 29.33 in993.2 mb 0.00 in0.0 mm 0.00 in0.0 mm 0.00 in0.0 mm
06:40 PM 50.9°F10.5°C 41.0°F5.0°C 69% 0.6 mph SE1.0 kmh SE 2.5 mph4.0 kmh 29.36 in994.2 mb 0.00 in0.0 mm 0.00 in0.0 mm 0.00 in0.0 mm
06:45 PM 50.9°F10.5°C 41.0°F5.0°C 69% 1.4 mph SSE2.3 kmh SSE 3.4 mph5.5 kmh 29.36 in994.2 mb 0.00 in0.0 mm 0.00 in0.0 mm 0.00 in0.0 mm
06:50 PM 50.9°F10.5°C 41.0°F5.0°C 69% 2.3 mph S3.7 kmh S 3.6 mph5.8 kmh 29.36 in994.2 mb 0.00 in0.0 mm 0.00 in0.0 mm 0.00 in0.0 mm
06:55 PM 51.1°F10.6°C 41.0°F5.0°C 69% 3.0 mph S4.8 kmh S 3.8 mph6.1 kmh 29.36 in994.2 mb 0.00 in0.0 mm 0.00 in0.0 mm 0.00 in0.0 mm
07:00 PM 51.1°F10.6°C 41.0°F5.0°C 69% 3.3 mph S5.3 kmh S 4.7 mph7.6 kmh 29.36 in994.2 mb 0.00 in0.0 mm 0.00 in0.0 mm 0.00 in0.0 mm
07:05 PM 51.3°F10.7°C 41.0°F5.0°C 69% 4.0 mph S6.4 kmh S 8.1 mph13.0 kmh 29.36 in994.2 mb 0.00 in0.0 mm 0.00 in0.0 mm 0.00 in0.0 mm
07:10 PM 51.3°F10.7°C 41.0°F5.0°C 69% 4.9 mph S7.9 kmh S 8.1 mph13.0 kmh 29.36 in994.2 mb 0.00 in0.0 mm 0.00 in0.0 mm 0.00 in0.0 mm
07:15 PM 51.4°F10.8°C 41.0°F5.0°C 69% 4.4 mph S7.1 kmh S 7.2 mph11.6 kmh 29.36 in994.2 mb 0.00 in0.0 mm 0.00 in0.0 mm 0.00 in0.0 mm
07:20 PM 51.4°F10.8°C 41.0°F5.0°C 69% 4.7 mph S7.6 kmh S 7.2 mph11.6 kmh 29.36 in994.2 mb 0.00 in0.0 mm 0.00 in0.0 mm 0.00 in0.0 mm
07:25 PM 51.6°F10.9°C 42.8°F6.0°C 70% 5.9 mph S9.5 kmh S 8.1 mph13.0 kmh 29.33 in993.2 mb 0.00 in0.0 mm 0.00 in0.0 mm 0.00 in0.0 mm
07:30 PM 51.4°F10.8°C 41.0°F5.0°C 69% 6.1 mph S9.8 kmh S 8.7 mph14.0 kmh 29.33 in993.2 mb 0.00 in0.0 mm 0.00 in0.0 mm 0.00 in0.0 mm
07:35 PM 51.4°F10.8°C 42.8°F6.0°C 70% 5.5 mph S8.9 kmh S 8.7 mph14.0 kmh 29.33 in993.2 mb 0.00 in0.0 mm 0.00 in0.0 mm 0.00 in0.0 mm
07:40 PM 51.6°F10.9°C 42.8°F6.0°C 70% 5.5 mph S8.9 kmh S 7.6 mph12.2 kmh 29.33 in993.2 mb 0.00 in0.0 mm 0.00 in0.0 mm 0.00 in0.0 mm
07:45 PM 51.6°F10.9°C 42.8°F6.0°C 70% 5.3 mph S8.5 kmh S 7.6 mph12.2 kmh 29.33 in993.2 mb 0.00 in0.0 mm 0.00 in0.0 mm 0.00 in0.0 mm
07:50 PM 51.6°F10.9°C 42.8°F6.0°C 71% 5.7 mph S9.2 kmh S 7.6 mph12.2 kmh 29.33 in993.2 mb 0.00 in0.0 mm 0.00 in0.0 mm 0.00 in0.0 mm
07:55 PM 51.4°F10.8°C 42.8°F6.0°C 71% 5.9 mph S9.5 kmh S 7.6 mph12.2 kmh 29.18 in988.1 mb 0.00 in0.0 mm 0.00 in0.0 mm 0.00 in0.0 mm
08:00 PM 51.4°F10.8°C 42.8°F6.0°C 71% 5.1 mph S8.2 kmh S 7.6 mph12.2 kmh 29.18 in988.1 mb 0.00 in0.0 mm 0.00 in0.0 mm 0.00 in0.0 mm
08:05 PM 51.4°F10.8°C 42.8°F6.0°C 71% 5.4 mph SSE8.7 kmh SSE 9.6 mph15.4 kmh 29.18 in988.1 mb 0.00 in0.0 mm 0.00 in0.0 mm 0.00 in0.0 mm
08:10 PM 51.4°F10.8°C 42.8°F6.0°C 71% 6.0 mph SSE9.7 kmh SSE 9.6 mph15.4 kmh 29.36 in994.2 mb 0.00 in0.0 mm 0.00 in0.0 mm 0.00 in0.0 mm
08:15 PM 51.3°F10.7°C 42.8°F6.0°C 72% 5.2 mph SSE8.4 kmh SSE 9.2 mph14.8 kmh 29.36 in994.2 mb 0.00 in0.0 mm 0.00 in0.0 mm 0.00 in0.0 mm
08:20 PM 50.9°F10.5°C 42.8°F6.0°C 72% 4.2 mph S6.8 kmh S 8.7 mph14.0 kmh 29.36 in994.2 mb 0.00 in0.0 mm 0.00 in0.0 mm 0.00 in0.0 mm
08:25 PM 50.7°F10.4°C 42.8°F6.0°C 73% 4.5 mph S7.2 kmh S 8.7 mph14.0 kmh 29.36 in994.2 mb 0.00 in0.0 mm 0.00 in0.0 mm 0.00 in0.0 mm
08:30 PM 50.5°F10.3°C 42.8°F6.0°C 73% 4.0 mph S6.4 kmh S 8.7 mph14.0 kmh 29.36 in994.2 mb 0.00 in0.0 mm 0.00 in0.0 mm 0.00 in0.0 mm
08:35 PM 50.4°F10.2°C 42.8°F6.0°C 74% 2.6 mph S4.2 kmh S 5.8 mph9.3 kmh 29.36 in994.2 mb 0.00 in0.0 mm 0.00 in0.0 mm 0.00 in0.0 mm
08:40 PM 50.2°F10.1°C 42.8°F6.0°C 74% 3.3 mph S5.3 kmh S 5.8 mph9.3 kmh 29.33 in993.2 mb 0.00 in0.0 mm 0.00 in0.0 mm 0.00 in0.0 mm
08:45 PM 50.4°F10.2°C 42.8°F6.0°C 75% 4.4 mph S7.1 kmh S 10.3 mph16.6 kmh 29.33 in993.2 mb 0.00 in0.0 mm 0.00 in0.0 mm 0.00 in0.0 mm
08:50 PM 50.4°F10.2°C 42.8°F6.0°C 75% 5.0 mph S8.0 kmh S 10.3 mph16.6 kmh 29.33 in993.2 mb 0.00 in0.0 mm 0.00 in0.0 mm 0.00 in0.0 mm
08:55 PM 50.4°F10.2°C 42.8°F6.0°C 75% 5.0 mph S8.0 kmh S 8.1 mph13.0 kmh 29.33 in993.2 mb 0.00 in0.0 mm 0.00 in0.0 mm 0.00 in0.0 mm
09:00 PM 50.7°F10.4°C 42.8°F6.0°C 76% 6.1 mph S9.8 kmh S 9.4 mph15.1 kmh 29.33 in993.2 mb 0.00 in0.0 mm 0.00 in0.0 mm 0.00 in0.0 mm
09:05 PM 50.9°F10.5°C 44.6°F7.0°C 76% 6.1 mph S9.8 kmh S 9.4 mph15.1 kmh 29.33 in993.2 mb 0.00 in0.0 mm 0.00 in0.0 mm 0.00 in0.0 mm
09:15 PM 50.9°F10.5°C 44.6°F7.0°C 76% 7.5 mph S12.1 kmh S 13.0 mph20.9 kmh 29.27 in991.2 mb 0.00 in0.0 mm 0.00 in0.0 mm 0.00 in0.0 mm
09:20 PM 51.1°F10.6°C 44.6°F7.0°C 77% 7.1 mph S11.4 kmh S 9.4 mph15.1 kmh 29.27 in991.2 mb 0.00 in0.0 mm 0.00 in0.0 mm 0.00 in0.0 mm
09:25 PM 51.1°F10.6°C 44.6°F7.0°C 77% 7.0 mph S11.3 kmh S 9.8 mph15.8 kmh 29.27 in991.2 mb 0.00 in0.0 mm 0.00 in0.0 mm 0.00 in0.0 mm
09:30 PM 51.1°F10.6°C 44.6°F7.0°C 77% 7.2 mph S11.6 kmh S 11.0 mph17.7 kmh 29.27 in991.2 mb 0.00 in0.0 mm 0.00 in0.0 mm 0.00 in0.0 mm
09:35 PM 51.3°F10.7°C 44.6°F7.0°C 77% 7.5 mph S12.1 kmh S 11.0 mph17.7 kmh 29.27 in991.2 mb 0.00 in0.0 mm 0.00 in0.0 mm 0.00 in0.0 mm
09:40 PM 51.3°F10.7°C 44.6°F7.0°C 77% 7.0 mph S11.3 kmh S 8.7 mph14.0 kmh 29.27 in991.2 mb 0.00 in0.0 mm 0.00 in0.0 mm 0.00 in0.0 mm
09:45 PM 51.1°F10.6°C 44.6°F7.0°C 78% 7.4 mph SSE11.9 kmh SSE 12.3 mph19.8 kmh 29.27 in991.2 mb 0.00 in0.0 mm 0.00 in0.0 mm 0.00 in0.0 mm
09:50 PM 51.1°F10.6°C 44.6°F7.0°C 78% 7.8 mph S12.6 kmh S 12.3 mph19.8 kmh 29.27 in991.2 mb 0.00 in0.0 mm 0.00 in0.0 mm 0.00 in0.0 mm
09:55 PM 50.9°F10.5°C 44.6°F7.0°C 78% 7.5 mph S12.1 kmh S 12.3 mph19.8 kmh 29.24 in990.2 mb 0.00 in0.0 mm 0.00 in0.0 mm 0.00 in0.0 mm
10:00 PM 50.9°F10.5°C 44.6°F7.0°C 78% 7.2 mph S11.6 kmh S 9.8 mph15.8 kmh 29.24 in990.2 mb 0.00 in0.0 mm 0.00 in0.0 mm 0.00 in0.0 mm
10:05 PM 50.7°F10.4°C 44.6°F7.0°C 79% 7.2 mph S11.6 kmh S 13.2 mph21.2 kmh 29.24 in990.2 mb 0.00 in0.0 mm 0.00 in0.0 mm 0.00 in0.0 mm
10:10 PM 50.5°F10.3°C 44.6°F7.0°C 79% 6.5 mph S10.5 kmh S 13.2 mph21.2 kmh 29.27 in991.2 mb 0.00 in0.0 mm 0.00 in0.0 mm 0.00 in0.0 mm
10:15 PM 50.7°F10.4°C 44.6°F7.0°C 79% 7.3 mph SSE11.7 kmh SSE 12.1 mph19.5 kmh 29.27 in991.2 mb 0.00 in0.0 mm 0.00 in0.0 mm 0.00 in0.0 mm
10:20 PM 50.7°F10.4°C 44.6°F7.0°C 79% 7.6 mph SSE12.2 kmh SSE 12.1 mph19.5 kmh 29.27 in991.2 mb 0.00 in0.0 mm 0.00 in0.0 mm 0.00 in0.0 mm
10:25 PM 50.5°F10.3°C 44.6°F7.0°C 79% 6.4 mph SSE10.3 kmh SSE 12.1 mph19.5 kmh 29.27 in991.2 mb 0.00 in0.0 mm 0.00 in0.0 mm 0.00 in0.0 mm
10:30 PM 50.4°F10.2°C 44.6°F7.0°C 79% 5.6 mph S9.0 kmh S 7.6 mph12.2 kmh 29.27 in991.2 mb 0.00 in0.0 mm 0.00 in0.0 mm 0.00 in0.0 mm
10:35 PM 50.2°F10.1°C 44.6°F7.0°C 79% 5.2 mph S8.4 kmh S 7.6 mph12.2 kmh 29.27 in991.2 mb 0.00 in0.0 mm 0.00 in0.0 mm 0.00 in0.0 mm
10:40 PM 50.0°F10.0°C 44.6°F7.0°C 79% 3.7 mph SSW6.0 kmh SSW 6.7 mph10.8 kmh 29.27 in991.2 mb 0.00 in0.0 mm 0.00 in0.0 mm 0.00 in0.0 mm
10:45 PM 50.0°F10.0°C 44.6°F7.0°C 79% 4.2 mph S6.8 kmh S 8.9 mph14.3 kmh 29.27 in991.2 mb 0.00 in0.0 mm 0.00 in0.0 mm 0.00 in0.0 mm
10:50 PM 50.0°F10.0°C 44.6°F7.0°C 79% 5.5 mph S8.9 kmh S 8.9 mph14.3 kmh 29.27 in991.2 mb 0.00 in0.0 mm 0.00 in0.0 mm 0.00 in0.0 mm
10:55 PM 50.0°F10.0°C 44.6°F7.0°C 80% 5.3 mph S8.5 kmh S 8.7 mph14.0 kmh 29.27 in991.2 mb 0.00 in0.0 mm 0.00 in0.0 mm 0.00 in0.0 mm
11:00 PM 50.4°F10.2°C 44.6°F7.0°C 80% 6.2 mph S10.0 kmh S 9.8 mph15.8 kmh 29.27 in991.2 mb 0.00 in0.0 mm 0.00 in0.0 mm 0.00 in0.0 mm
11:05 PM 50.5°F10.3°C 44.6°F7.0°C 80% 5.7 mph S9.2 kmh S 9.8 mph15.8 kmh 29.27 in991.2 mb 0.00 in0.0 mm 0.00 in0.0 mm 0.00 in0.0 mm
11:10 PM 50.7°F10.4°C 44.6°F7.0°C 80% 7.3 mph S11.7 kmh S 12.3 mph19.8 kmh 29.24 in990.2 mb 0.00 in0.0 mm 0.00 in0.0 mm 0.00 in0.0 mm
11:15 PM 50.9°F10.5°C 46.4°F8.0°C 80% 9.1 mph S14.6 kmh S 12.8 mph20.6 kmh 29.24 in990.2 mb 0.00 in0.0 mm 0.00 in0.0 mm 0.00 in0.0 mm
11:20 PM 50.9°F10.5°C 46.4°F8.0°C 80% 7.5 mph S12.1 kmh S 12.8 mph20.6 kmh 29.24 in990.2 mb 0.00 in0.0 mm 0.00 in0.0 mm 0.00 in0.0 mm
11:25 PM 50.9°F10.5°C 46.4°F8.0°C 80% 7.6 mph S12.2 kmh S 12.5 mph20.1 kmh 29.24 in990.2 mb 0.00 in0.0 mm 0.00 in0.0 mm 0.00 in0.0 mm
11:30 PM 50.9°F10.5°C 46.4°F8.0°C 80% 7.8 mph S12.6 kmh S 12.8 mph20.6 kmh 29.24 in990.2 mb 0.00 in0.0 mm 0.00 in0.0 mm 0.00 in0.0 mm
11:35 PM 51.1°F10.6°C 46.4°F8.0°C 80% 6.4 mph S10.3 kmh S 12.8 mph20.6 kmh 29.24 in990.2 mb 0.00 in0.0 mm 0.00 in0.0 mm 0.00 in0.0 mm
11:40 PM 51.1°F10.6°C 46.4°F8.0°C 80% 5.5 mph SSE8.9 kmh SSE 10.1 mph16.3 kmh 29.24 in990.2 mb 0.00 in0.0 mm 0.00 in0.0 mm 0.00 in0.0 mm
11:45 PM 51.1°F10.6°C 46.4°F8.0°C 80% 6.2 mph S10.0 kmh S 11.0 mph17.7 kmh 29.24 in990.2 mb 0.00 in0.0 mm 0.00 in0.0 mm 0.00 in0.0 mm
11:50 PM 50.9°F10.5°C 46.4°F8.0°C 80% 7.2 mph S11.6 kmh S 11.0 mph17.7 kmh 29.24 in990.2 mb 0.00 in0.0 mm 0.00 in0.0 mm 0.00 in0.0 mm
11:55 PM 50.9°F10.5°C 46.4°F8.0°C 80% 6.0 mph S9.7 kmh S 11.0 mph17.7 kmh 29.24 in990.2 mb 0.00 in0.0 mm 0.00 in0.0 mm 0.00 in0.0 mm